Time;durP1;ratioP1;P1;durP2;ratioP2;P2;SDS_P1;SDS_P2;PMS_P1;PMS_P2;Temp;Humidity;BMP_temperature;BMP_pressure;BME280_temperature;BME280_humidity;BME280_pressure;Samples;Min_cycle;Max_cycle;Signal;HPM_P1;HPM_P2
2023/08/31 00:00:11;;;;;;;2.73;2.47;;;19.40;92.30;;;;;;5004392;28;21003;-72
2023/08/31 00:02:40;;;;;;;2.43;2.23;;;19.40;92.30;;;;;;4986723;28;21057;-72
2023/08/31 00:05:06;;;;;;;2.90;2.60;;;19.40;92.30;;;;;;5003737;28;20412;-72
2023/08/31 00:07:33;;;;;;;3.07;2.50;;;19.40;92.30;;;;;;4999551;28;20487;-72
2023/08/31 00:09:59;;;;;;;2.33;2.00;;;19.40;92.30;;;;;;5002624;28;20437;-72
2023/08/31 00:12:28;;;;;;;2.40;2.10;;;19.40;92.30;;;;;;5057548;23;20500;-73
2023/08/31 00:14:56;;;;;;;2.57;2.17;;;19.40;92.30;;;;;;4972897;28;20490;-72
2023/08/31 00:17:25;;;;;;;2.93;2.30;;;19.40;92.30;;;;;;4936555;28;20443;-73
2023/08/31 00:19:55;;;;;;;2.90;2.40;;;19.40;92.30;;;;;;4939013;28;20462;-72
2023/08/31 00:22:21;;;;;;;3.33;2.20;;;19.40;92.30;;;;;;4944210;29;20806;-73
2023/08/31 00:24:50;;;;;;;2.63;2.43;;;19.40;92.30;;;;;;4940127;28;20443;-72
2023/08/31 00:27:21;;;;;;;2.30;2.10;;;19.40;92.30;;;;;;4959843;28;20219;-72
2023/08/31 00:29:50;;;;;;;3.57;2.47;;;19.30;92.20;;;;;;4967297;28;20420;-73
2023/08/31 00:32:18;;;;;;;2.33;2.17;;;19.30;92.20;;;;;;4959269;28;20513;-72
2023/08/31 00:34:47;;;;;;;2.97;2.67;;;19.30;92.20;;;;;;4954276;28;21046;-73
2023/08/31 00:37:17;;;;;;;2.93;2.50;;;19.30;92.20;;;;;;4955284;28;20443;-72
2023/08/31 00:39:45;;;;;;;3.47;2.93;;;19.30;92.20;;;;;;4971641;28;20445;-73
2023/08/31 00:42:14;;;;;;;2.67;2.37;;;19.30;92.20;;;;;;4970456;28;20522;-73
2023/08/31 00:44:42;;;;;;;2.73;2.43;;;19.30;92.20;;;;;;4970310;28;20434;-73
2023/08/31 00:47:12;;;;;;;3.77;2.50;;;19.30;92.20;;;;;;4966181;28;20461;-73
2023/08/31 00:49:38;;;;;;;2.70;2.50;;;19.30;92.10;;;;;;4935114;28;20465;-73
2023/08/31 00:52:09;;;;;;;4.40;3.13;;;19.30;92.10;;;;;;4950734;28;20500;-73
2023/08/31 00:54:38;;;;;;;2.30;2.10;;;19.30;92.10;;;;;;4977305;28;20815;-73
2023/08/31 00:57:05;;;;;;;2.23;2.03;;;19.20;92.10;;;;;;4986421;28;20433;-72
2023/08/31 00:59:33;;;;;;;2.77;2.53;;;19.20;92.10;;;;;;4970039;28;20457;-73
2023/08/31 01:02:22;;;;;;;2.73;2.33;;;19.20;92.10;;;;;;4966271;28;20445;-73
2023/08/31 01:05:22;;;;;;;3.53;2.63;;;19.20;92.00;;;;;;4939363;28;20974;-72
2023/08/31 01:07:52;;;;;;;2.87;2.37;;;19.20;92.10;;;;;;4969905;28;20973;-73
2023/08/31 01:10:30;;;;;;;3.23;2.87;;;19.20;92.10;;;;;;4969492;28;20437;-72
2023/08/31 01:13:13;;;;;;;2.33;2.13;;;19.20;92.10;;;;;;4986411;28;20507;-73
2023/08/31 01:15:46;;;;;;;4.63;2.73;;;19.20;92.40;;;;;;4934329;28;20516;-72
2023/08/31 01:18:16;;;;;;;2.97;2.63;;;19.20;92.00;;;;;;4950450;28;20427;-73
2023/08/31 01:21:04;;;;;;;2.77;2.47;;;19.10;92.00;;;;;;4950496;28;20431;-73
2023/08/31 01:23:50;;;;;;;6.10;2.60;;;19.10;92.00;;;;;;4966524;28;20784;-72
2023/08/31 01:26:17;;;;;;;3.10;2.47;;;19.10;92.00;;;;;;4967358;28;20433;-72
2023/08/31 01:28:43;;;;;;;2.20;2.03;;;19.10;91.90;;;;;;4918984;28;20441;-72
2023/08/31 01:31:10;;;;;;;2.80;2.60;;;19.10;92.00;;;;;;4947397;28;20457;-73
2023/08/31 01:33:38;;;;;;;4.13;2.43;;;19.10;92.00;;;;;;4949815;28;20554;-73
2023/08/31 01:36:12;;;;;;;2.33;2.23;;;19.10;92.00;;;;;;4966175;28;20830;-73
2023/08/31 01:38:45;;;;;;;2.40;2.20;;;19.10;91.90;;;;;;4949613;28;20426;-73
2023/08/31 01:41:19;;;;;;;3.20;2.60;;;19.10;91.90;;;;;;4967666;28;20455;-72
2023/08/31 01:43:47;;;;;;;2.60;2.20;;;19.00;91.90;;;;;;4950005;28;20462;-72
2023/08/31 01:46:18;;;;;;;2.87;2.60;;;19.00;91.90;;;;;;4949748;28;20439;-72
2023/08/31 01:48:48;;;;;;;2.70;2.50;;;19.00;91.90;;;;;;4945343;28;20440;-72
2023/08/31 01:51:17;;;;;;;2.80;2.60;;;19.00;91.90;;;;;;4955014;28;20429;-71
2023/08/31 01:53:48;;;;;;;2.43;2.23;;;19.00;91.90;;;;;;4984427;28;20468;-72
2023/08/31 01:56:14;;;;;;;4.80;2.80;;;19.00;91.90;;;;;;4952791;28;20829;-72
2023/08/31 01:58:40;;;;;;;3.27;2.30;;;19.00;91.90;;;;;;4968590;28;20418;-72
2023/08/31 02:01:08;;;;;;;2.97;2.27;;;19.00;91.80;;;;;;4969756;28;20436;-73
2023/08/31 02:03:36;;;;;;;6.23;2.40;;;19.00;91.80;;;;;;4934233;28;20529;-72
2023/08/31 02:06:03;;;;;;;2.83;2.60;;;19.00;91.80;;;;;;4950709;28;20939;-72
2023/08/31 02:08:31;;;;;;;2.60;2.33;;;19.00;91.80;;;;;;4950491;28;20505;-73
2023/08/31 02:10:57;;;;;;;3.43;2.50;;;19.00;91.80;;;;;;4961748;28;20421;-72
2023/08/31 02:13:23;;;;;;;2.60;2.43;;;19.00;91.80;;;;;;4962535;28;20478;-72
2023/08/31 02:15:53;;;;;;;2.87;2.67;;;18.90;91.70;;;;;;4966341;28;20210;-73
2023/08/31 02:18:19;;;;;;;3.37;2.50;;;18.90;91.70;;;;;;4933890;28;21242;-73
2023/08/31 02:20:45;;;;;;;2.70;2.50;;;18.90;91.70;;;;;;4943090;28;20425;-73
2023/08/31 02:23:14;;;;;;;4.33;3.43;;;18.90;91.70;;;;;;4969228;28;20488;-72
2023/08/31 02:25:42;;;;;;;2.33;2.10;;;18.90;91.70;;;;;;4986024;28;20503;-72
2023/08/31 02:28:09;;;;;;;5.87;2.93;;;18.90;91.70;;;;;;4986887;28;20409;-73
2023/08/31 02:30:39;;;;;;;2.77;2.57;;;18.90;91.70;;;;;;4953407;28;20209;-73
2023/08/31 02:33:05;;;;;;;3.00;2.53;;;18.90;92.00;;;;;;4952714;28;20475;-73
2023/08/31 02:35:34;;;;;;;2.40;2.20;;;18.80;91.60;;;;;;4978734;28;20512;-72
2023/08/31 02:38:00;;;;;;;2.87;2.33;;;18.90;91.70;;;;;;4966666;28;20602;-73
2023/08/31 02:40:26;;;;;;;2.80;2.60;;;18.80;91.60;;;;;;4948980;28;20403;-73
2023/08/31 02:42:52;;;;;;;3.47;2.40;;;18.80;91.60;;;;;;4917167;28;20453;-73
2023/08/31 02:45:19;;;;;;;3.73;2.67;;;18.80;91.60;;;;;;4967342;28;20456;-71
2023/08/31 02:48:11;;;;;;;2.93;2.70;;;18.80;91.60;;;;;;4976809;28;20846;-73
2023/08/31 02:50:40;;;;;;;2.60;2.40;;;18.80;91.60;;;;;;4931086;28;20533;-73
2023/08/31 02:53:07;;;;;;;3.33;2.70;;;18.80;91.70;;;;;;4966443;28;20473;-73
2023/08/31 02:55:33;;;;;;;2.97;2.67;;;18.80;91.60;;;;;;4951021;28;20451;-73
2023/08/31 02:58:02;;;;;;;2.90;2.70;;;18.80;91.60;;;;;;4954610;28;20898;-73
2023/08/31 03:00:33;;;;;;;3.10;2.80;;;18.80;91.60;;;;;;4948168;28;20457;-72
2023/08/31 03:02:59;;;;;;;3.63;3.00;;;18.80;91.50;;;;;;4948175;28;20542;-72
2023/08/31 03:05:25;;;;;;;3.00;2.77;;;18.70;91.50;;;;;;4948318;28;20486;-73
2023/08/31 03:07:56;;;;;;;3.00;2.80;;;18.80;91.60;;;;;;4948113;28;20457;-71
2023/08/31 03:10:25;;;;;;;4.20;2.90;;;18.70;91.90;;;;;;4959100;28;20430;-73
2023/08/31 03:12:53;;;;;;;3.10;2.90;;;18.70;91.50;;;;;;4964938;28;21013;-72
2023/08/31 03:15:19;;;;;;;3.80;3.47;;;18.70;91.60;;;;;;4950901;28;20471;-72
2023/08/31 03:17:45;;;;;;;2.67;2.47;;;18.70;91.60;;;;;;4958971;28;20798;-73
2023/08/31 03:20:14;;;;;;;2.80;2.60;;;18.70;91.50;;;;;;4948998;28;20848;-72
2023/08/31 03:22:43;;;;;;;4.93;3.00;;;18.70;91.80;;;;;;4947544;28;20433;-73
2023/08/31 03:25:09;;;;;;;3.00;2.80;;;18.70;91.50;;;;;;4947788;28;20894;-72
2023/08/31 03:27:37;;;;;;;4.30;3.10;;;18.70;91.50;;;;;;4948378;28;20338;-73
2023/08/31 03:30:04;;;;;;;4.10;3.20;;;18.70;91.50;;;;;;4956348;28;20418;-73
2023/08/31 03:32:30;;;;;;;3.80;3.23;;;18.70;91.50;;;;;;4956429;28;20426;-73
2023/08/31 03:34:59;;;;;;;3.00;2.80;;;18.60;91.50;;;;;;4982162;28;20857;-72
2023/08/31 03:37:25;;;;;;;2.47;2.37;;;18.60;91.50;;;;;;4967833;28;20456;-72
2023/08/31 03:39:51;;;;;;;3.10;2.90;;;18.60;91.40;;;;;;4961599;28;20453;-73
2023/08/31 03:42:19;;;;;;;2.87;2.57;;;18.60;91.50;;;;;;4949267;28;20767;-72
2023/08/31 03:44:56;;;;;;;2.63;2.43;;;18.60;91.50;;;;;;4978997;28;20843;-72
2023/08/31 03:47:25;;;;;;;4.77;2.90;;;18.60;91.40;;;;;;4986747;28;20527;-71
2023/08/31 03:49:54;;;;;;;3.10;2.90;;;18.60;91.40;;;;;;4968961;28;20424;-73
2023/08/31 03:52:23;;;;;;;3.33;3.10;;;18.60;91.40;;;;;;4958674;28;20915;-72
2023/08/31 03:54:53;;;;;;;2.93;2.73;;;18.60;91.40;;;;;;4933866;28;20465;-73
2023/08/31 03:57:26;;;;;;;3.83;3.63;;;18.60;91.40;;;;;;4950573;28;20410;-74
2023/08/31 03:59:56;;;;;;;3.20;2.50;;;18.60;91.40;;;;;;4964773;28;20523;-74
2023/08/31 04:02:24;;;;;;;3.13;2.93;;;18.50;91.30;;;;;;4947815;28;20430;-74
2023/08/31 04:04:51;;;;;;;2.90;2.67;;;18.60;91.40;;;;;;4962593;28;20499;-74
2023/08/31 04:07:19;;;;;;;3.30;2.60;;;18.50;91.30;;;;;;4984905;28;20441;-74
2023/08/31 04:09:45;;;;;;;4.03;2.90;;;18.50;91.30;;;;;;4984566;28;20465;-74
2023/08/31 04:12:13;;;;;;;3.33;2.83;;;18.50;91.30;;;;;;4958555;28;20509;-74
2023/08/31 04:14:41;;;;;;;3.27;2.97;;;18.50;91.30;;;;;;4947572;28;20469;-74
2023/08/31 04:17:08;;;;;;;3.40;3.10;;;18.50;91.40;;;;;;4977241;28;20447;-74
2023/08/31 04:19:37;;;;;;;4.40;3.10;;;18.50;91.30;;;;;;4948111;28;20428;-74
2023/08/31 04:22:07;;;;;;;3.13;2.80;;;18.50;91.30;;;;;;4965806;28;20419;-74
2023/08/31 04:24:33;;;;;;;5.43;3.50;;;18.50;91.30;;;;;;4965981;28;20826;-74
2023/08/31 04:26:59;;;;;;;3.23;2.97;;;18.40;91.30;;;;;;4966097;28;21010;-74
2023/08/31 04:29:25;;;;;;;3.00;2.80;;;18.40;91.20;;;;;;4963611;28;20449;-74
2023/08/31 04:31:51;;;;;;;3.80;3.40;;;18.40;91.20;;;;;;4963543;28;20428;-74
2023/08/31 04:34:22;;;;;;;3.30;3.07;;;18.40;91.20;;;;;;4964219;28;20205;-74
2023/08/31 04:36:53;;;;;;;3.30;3.10;;;18.40;91.20;;;;;;4962689;28;20509;-74
2023/08/31 04:39:19;;;;;;;3.33;3.10;;;18.40;91.20;;;;;;4963232;28;20504;-74
2023/08/31 04:41:45;;;;;;;3.13;2.93;;;18.40;91.20;;;;;;4964785;28;20436;-72
2023/08/31 04:44:11;;;;;;;3.47;3.27;;;18.40;91.20;;;;;;4963520;28;20410;-72
2023/08/31 04:46:41;;;;;;;3.33;3.03;;;18.40;91.20;;;;;;4959995;28;20214;-72
2023/08/31 04:49:08;;;;;;;3.07;2.77;;;18.40;91.20;;;;;;4944289;29;20422;-73
2023/08/31 04:51:39;;;;;;;3.30;3.00;;;18.30;91.10;;;;;;4957992;28;20426;-72
2023/08/31 04:54:05;;;;;;;3.70;3.40;;;18.30;91.10;;;;;;4966302;28;20893;-74
2023/08/31 04:56:34;;;;;;;3.30;2.80;;;18.30;91.10;;;;;;4952121;28;20451;-71
2023/08/31 04:59:05;;;;;;;2.70;2.50;;;18.30;91.10;;;;;;4960862;28;20627;-71
2023/08/31 05:01:31;;;;;;;2.90;2.70;;;18.30;91.10;;;;;;4946336;28;20436;-72
2023/08/31 05:03:57;;;;;;;3.70;3.30;;;18.30;91.10;;;;;;4963473;28;20430;-72
2023/08/31 05:06:26;;;;;;;3.13;2.93;;;18.30;91.10;;;;;;4947896;28;20450;-72
2023/08/31 05:08:54;;;;;;;3.50;3.20;;;18.30;91.10;;;;;;4965410;28;20934;-72
2023/08/31 05:11:20;;;;;;;3.47;2.80;;;18.30;91.10;;;;;;4965520;28;20442;-72
2023/08/31 05:13:48;;;;;;;2.80;2.60;;;18.30;91.10;;;;;;4966101;28;21014;-72
2023/08/31 05:16:14;;;;;;;3.30;3.00;;;18.30;91.10;;;;;;4968529;28;20454;-72
2023/08/31 05:18:40;;;;;;;3.60;2.80;;;18.30;91.20;;;;;;4970645;28;20539;-72
2023/08/31 05:21:06;;;;;;;2.67;2.47;;;18.30;91.20;;;;;;4985869;28;20821;-72
2023/08/31 05:23:38;;;;;;;3.20;2.90;;;18.30;91.20;;;;;;4968004;28;20434;-72
2023/08/31 05:26:11;;;;;;;3.57;2.80;;;18.20;91.20;;;;;;5061919;22;20560;-69
2023/08/31 05:28:44;;;;;;;2.50;2.30;;;18.20;91.20;;;;;;5000781;28;20461;-69
2023/08/31 05:31:10;;;;;;;3.20;2.90;;;18.20;91.20;;;;;;5027797;28;20404;-69
2023/08/31 05:33:36;;;;;;;4.10;2.80;;;18.20;91.20;;;;;;4991895;28;20975;-70
2023/08/31 05:36:05;;;;;;;2.97;2.77;;;18.20;91.20;;;;;;5008689;28;20446;-70
2023/08/31 05:38:33;;;;;;;3.17;2.97;;;18.20;91.20;;;;;;5009121;28;20435;-69
2023/08/31 05:41:17;;;;;;;2.50;2.40;;;18.20;91.20;;;;;;5026772;28;20952;-70
2023/08/31 05:43:48;;;;;;;2.80;2.60;;;18.20;91.20;;;;;;5026974;28;20842;-69
2023/08/31 05:46:16;;;;;;;3.03;2.83;;;18.20;91.20;;;;;;5004649;28;20542;-68
2023/08/31 05:48:47;;;;;;;3.13;2.73;;;18.20;91.20;;;;;;5011684;28;20420;-70
2023/08/31 05:51:16;;;;;;;3.83;2.90;;;18.20;91.30;;;;;;4989185;28;20410;-70
2023/08/31 05:53:42;;;;;;;2.93;2.40;;;18.20;91.40;;;;;;5007684;28;20444;-69
2023/08/31 05:56:09;;;;;;;3.37;3.07;;;18.20;91.40;;;;;;5004135;28;20461;-69
2023/08/31 05:58:38;;;;;;;2.60;2.50;;;18.20;91.60;;;;;;4988944;28;20571;-69
2023/08/31 06:01:05;;;;;;;3.63;2.80;;;18.20;91.90;;;;;;4988627;28;20419;-68
2023/08/31 06:03:36;;;;;;;3.00;2.70;;;18.20;91.70;;;;;;5005690;28;20472;-71
2023/08/31 06:06:04;;;;;;;2.80;2.50;;;18.20;91.50;;;;;;4973942;28;20447;-69
2023/08/31 06:08:30;;;;;;;3.10;2.80;;;18.10;91.50;;;;;;5025687;28;21216;-69
2023/08/31 06:10:56;;;;;;;4.27;3.10;;;18.10;91.50;;;;;;5026607;28;20410;-69
2023/08/31 06:13:22;;;;;;;3.97;2.97;;;18.10;91.40;;;;;;5025893;28;20454;-69
2023/08/31 06:15:48;;;;;;;3.67;2.97;;;18.20;91.80;;;;;;5026322;28;20618;-69
2023/08/31 06:18:15;;;;;;;2.97;2.77;;;18.10;91.80;;;;;;5004612;28;20500;-69
2023/08/31 06:20:41;;;;;;;2.90;2.70;;;18.20;92.00;;;;;;4992219;28;20451;-68
2023/08/31 06:23:10;;;;;;;3.00;2.73;;;18.20;92.00;;;;;;5008390;28;20407;-68
2023/08/31 06:25:38;;;;;;;3.00;2.77;;;18.10;92.10;;;;;;5025380;28;20475;-69
2023/08/31 06:28:08;;;;;;;3.70;3.40;;;18.10;92.10;;;;;;5010407;28;20470;-69
2023/08/31 06:30:36;;;;;;;2.90;2.70;;;18.10;92.30;;;;;;5010241;28;20553;-69
2023/08/31 06:33:10;;;;;;;2.93;2.80;;;18.10;92.60;;;;;;4979639;28;20452;-69
2023/08/31 06:35:39;;;;;;;4.40;3.33;;;18.10;92.50;;;;;;5025323;28;20526;-70
2023/08/31 06:38:05;;;;;;;2.87;2.67;;;18.10;92.50;;;;;;5025085;28;20428;-69
2023/08/31 06:40:31;;;;;;;3.33;3.03;;;18.00;92.70;;;;;;4971991;28;20546;-70
2023/08/31 06:42:57;;;;;;;3.00;2.80;;;18.10;92.80;;;;;;4988332;28;20409;-70
2023/08/31 06:45:25;;;;;;;3.17;2.90;;;18.10;92.80;;;;;;5007809;28;20439;-69
2023/08/31 06:47:52;;;;;;;3.57;3.37;;;18.10;93.00;;;;;;5006155;28;20443;-69
2023/08/31 06:50:20;;;;;;;3.50;3.20;;;18.10;93.00;;;;;;4993213;28;20418;-68
2023/08/31 06:52:50;;;;;;;3.73;3.33;;;18.10;93.10;;;;;;5004950;28;20869;-69
2023/08/31 06:55:18;;;;;;;3.50;3.30;;;18.10;93.40;;;;;;4985466;28;20435;-69
2023/08/31 06:57:45;;;;;;;4.33;3.80;;;18.10;93.00;;;;;;5024124;28;20456;-69
2023/08/31 07:00:15;;;;;;;3.77;3.03;;;18.10;93.10;;;;;;5007043;28;20527;-69
2023/08/31 07:02:45;;;;;;;3.60;3.40;;;18.10;93.10;;;;;;4989923;28;20483;-69
2023/08/31 07:05:11;;;;;;;3.50;3.20;;;18.10;93.00;;;;;;5024973;28;20913;-70
2023/08/31 07:07:40;;;;;;;3.37;3.07;;;18.10;93.00;;;;;;5025128;28;20449;-69
2023/08/31 07:10:08;;;;;;;3.10;2.90;;;18.10;93.00;;;;;;5024724;28;20463;-69
2023/08/31 07:12:34;;;;;;;3.67;3.03;;;18.10;92.90;;;;;;5024847;28;20501;-69
2023/08/31 07:15:03;;;;;;;3.63;3.23;;;18.10;93.00;;;;;;5007458;28;20475;-69
2023/08/31 07:17:30;;;;;;;3.80;3.50;;;18.10;93.00;;;;;;5006028;28;20868;-70
2023/08/31 07:19:59;;;;;;;4.40;3.30;;;18.10;92.90;;;;;;4994166;28;20439;-69
2023/08/31 07:22:25;;;;;;;3.87;3.57;;;18.10;93.00;;;;;;5012956;28;20177;-69
2023/08/31 07:24:51;;;;;;;3.70;3.07;;;18.00;93.10;;;;;;5005011;28;20409;-69
2023/08/31 07:27:17;;;;;;;3.13;2.80;;;18.10;93.20;;;;;;5005118;28;20936;-69
2023/08/31 07:29:45;;;;;;;3.43;3.13;;;18.00;93.10;;;;;;4994261;28;20551;-70
2023/08/31 07:32:11;;;;;;;3.33;3.03;;;18.10;93.30;;;;;;5007336;28;20946;-69
2023/08/31 07:34:38;;;;;;;4.43;2.90;;;18.10;93.30;;;;;;5006636;28;20503;-70
2023/08/31 07:37:04;;;;;;;3.43;3.13;;;18.10;93.30;;;;;;5006277;28;20216;-70
2023/08/31 07:39:32;;;;;;;4.50;3.10;;;18.00;93.50;;;;;;5023085;28;20513;-69
2023/08/31 07:42:02;;;;;;;3.13;2.83;;;18.00;93.30;;;;;;5006563;28;20517;-69
2023/08/31 07:44:27;;;;;;;3.20;2.90;;;18.00;93.40;;;;;;5005712;28;20435;-70
2023/08/31 07:46:55;;;;;;;3.80;3.33;;;18.10;93.30;;;;;;5024282;28;20505;-70
2023/08/31 07:49:21;;;;;;;3.60;3.30;;;18.00;93.30;;;;;;4995881;28;20420;-68
2023/08/31 07:51:49;;;;;;;3.77;3.47;;;18.00;93.20;;;;;;4997987;28;20638;-69
2023/08/31 07:54:22;;;;;;;3.70;3.40;;;18.00;93.30;;;;;;5023843;28;20527;-70
2023/08/31 07:56:51;;;;;;;5.57;3.40;;;18.00;93.40;;;;;;5005415;28;20458;-69
2023/08/31 07:59:18;;;;;;;3.50;3.20;;;18.00;93.40;;;;;;5006112;28;20434;-70
2023/08/31 08:01:44;;;;;;;3.57;3.23;;;18.00;93.30;;;;;;5006878;28;20422;-69
2023/08/31 08:04:13;;;;;;;3.50;3.20;;;18.00;93.30;;;;;;5007138;28;21111;-70
2023/08/31 08:06:42;;;;;;;3.40;3.10;;;18.10;93.50;;;;;;4990519;28;20523;-69
2023/08/31 08:09:09;;;;;;;3.30;3.00;;;18.10;93.60;;;;;;5015997;28;20922;-70
2023/08/31 08:11:36;;;;;;;3.17;2.87;;;18.10;93.70;;;;;;5004212;28;20922;-69
2023/08/31 08:14:02;;;;;;;3.87;3.47;;;18.00;93.50;;;;;;4986429;28;20529;-69
2023/08/31 08:16:30;;;;;;;3.57;2.60;;;18.10;93.60;;;;;;5004627;28;20699;-69
2023/08/31 08:19:00;;;;;;;5.00;3.50;;;18.00;93.50;;;;;;5024076;28;20454;-69
2023/08/31 08:21:28;;;;;;;4.10;3.70;;;18.00;93.50;;;;;;5023946;28;20450;-69
2023/08/31 08:23:54;;;;;;;3.70;3.13;;;18.00;93.60;;;;;;4995803;28;20451;-70
2023/08/31 08:26:22;;;;;;;4.63;3.50;;;18.00;93.60;;;;;;5004158;28;20464;-69
2023/08/31 08:28:51;;;;;;;3.83;3.53;;;18.10;93.70;;;;;;5004062;28;20471;-70
2023/08/31 08:31:19;;;;;;;3.53;2.87;;;18.10;93.60;;;;;;4985692;28;20424;-70
2023/08/31 08:33:45;;;;;;;3.30;3.00;;;18.10;93.60;;;;;;4977826;28;20531;-70
2023/08/31 08:36:13;;;;;;;4.27;3.67;;;18.10;94.00;;;;;;5004178;28;20451;-69
2023/08/31 08:38:42;;;;;;;3.90;3.57;;;18.10;93.60;;;;;;5004847;28;20483;-69
2023/08/31 08:41:14;;;;;;;4.90;3.10;;;18.10;93.70;;;;;;5023648;28;20430;-70
2023/08/31 08:43:43;;;;;;;3.70;3.27;;;18.10;93.70;;;;;;5005229;28;20443;-69
2023/08/31 08:46:09;;;;;;;3.40;3.10;;;18.10;93.70;;;;;;4988364;28;20481;-70
2023/08/31 08:48:37;;;;;;;3.90;3.30;;;18.10;93.70;;;;;;5016614;28;20459;-70
2023/08/31 08:51:09;;;;;;;5.70;2.90;;;18.10;93.70;;;;;;5064766;23;20593;-73
2023/08/31 08:53:39;;;;;;;3.20;2.90;;;18.10;93.70;;;;;;5043375;28;20477;-74
2023/08/31 08:56:04;;;;;;;4.00;3.60;;;18.20;93.90;;;;;;5027527;28;20518;-74
2023/08/31 08:58:31;;;;;;;3.70;2.90;;;18.20;93.90;;;;;;5026713;28;20430;-73
2023/08/31 09:00:56;;;;;;;3.00;2.80;;;18.20;94.00;;;;;;5044965;28;20187;-73
2023/08/31 09:03:24;;;;;;;4.13;3.37;;;18.20;94.00;;;;;;5010212;28;20802;-74
2023/08/31 09:05:53;;;;;;;3.53;3.10;;;18.20;94.10;;;;;;5027750;28;20457;-74
2023/08/31 09:08:26;;;;;;;3.53;3.23;;;18.20;94.10;;;;;;5014183;28;20525;-74
2023/08/31 09:10:57;;;;;;;4.43;3.47;;;18.20;94.00;;;;;;5044472;28;20483;-74
2023/08/31 09:13:29;;;;;;;4.07;3.70;;;18.30;94.10;;;;;;5002173;28;20923;-74
2023/08/31 09:15:59;;;;;;;3.37;3.10;;;18.30;94.00;;;;;;5023875;28;20446;-74
2023/08/31 09:18:34;;;;;;;5.33;3.27;;;18.30;94.00;;;;;;5021488;28;20437;-74
2023/08/31 09:21:01;;;;;;;5.33;3.47;;;18.30;94.30;;;;;;5022155;28;20507;-74
2023/08/31 09:23:27;;;;;;;3.80;3.33;;;18.30;94.10;;;;;;5031060;28;20430;-74
2023/08/31 09:25:55;;;;;;;3.23;2.93;;;18.30;94.10;;;;;;5009451;28;20435;-74
2023/08/31 09:28:27;;;;;;;4.13;2.93;;;18.40;94.10;;;;;;5043836;28;20548;-74
2023/08/31 09:31:06;;;;;;;3.20;2.90;;;18.40;94.10;;;;;;5043796;28;21239;-73
2023/08/31 09:33:35;;;;;;;3.80;3.23;;;18.40;94.10;;;;;;5043607;28;20475;-73
2023/08/31 09:36:01;;;;;;;4.60;2.83;;;18.50;94.10;;;;;;5026293;28;20488;-73
2023/08/31 09:38:32;;;;;;;4.00;3.13;;;18.50;94.10;;;;;;5026455;28;20451;-73
2023/08/31 09:41:06;;;;;;;2.90;2.70;;;18.60;94.20;;;;;;5010950;28;20834;-73
2023/08/31 09:43:35;;;;;;;3.97;3.30;;;18.50;94.00;;;;;;5027697;28;20428;-72
2023/08/31 09:46:07;;;;;;;3.40;2.87;;;18.50;94.10;;;;;;5027657;28;20539;-73
2023/08/31 09:48:38;;;;;;;4.27;3.20;;;18.60;94.10;;;;;;5026137;28;20441;-73
2023/08/31 09:51:05;;;;;;;3.73;3.13;;;18.60;94.00;;;;;;5026439;28;20547;-73
2023/08/31 09:53:31;;;;;;;3.23;2.93;;;18.60;94.00;;;;;;5012688;28;20497;-73
2023/08/31 09:55:58;;;;;;;3.60;2.90;;;18.60;94.00;;;;;;5044320;28;20463;-73
2023/08/31 09:58:24;;;;;;;3.17;2.97;;;18.60;94.30;;;;;;5044409;28;20501;-73
2023/08/31 10:00:52;;;;;;;3.00;2.80;;;18.60;93.90;;;;;;5024363;28;20418;-73
2023/08/31 10:03:20;;;;;;;3.53;3.17;;;18.70;94.00;;;;;;5015069;28;20504;-73
2023/08/31 10:05:49;;;;;;;4.03;3.23;;;18.70;93.90;;;;;;5028853;28;20448;-74
2023/08/31 10:08:19;;;;;;;4.20;2.90;;;18.70;93.80;;;;;;5035398;28;20837;-75
2023/08/31 10:10:45;;;;;;;3.10;2.80;;;18.80;93.90;;;;;;4992817;28;20451;-74
2023/08/31 10:13:13;;;;;;;3.57;3.27;;;18.80;93.80;;;;;;5023832;28;20502;-74
2023/08/31 10:15:41;;;;;;;4.53;3.73;;;18.80;93.80;;;;;;5024243;28;21318;-74
2023/08/31 10:18:09;;;;;;;4.40;3.40;;;18.90;93.90;;;;;;5041712;28;20486;-74
2023/08/31 10:20:35;;;;;;;4.67;3.03;;;18.90;93.90;;;;;;4998655;28;20948;-74
2023/08/31 10:23:05;;;;;;;3.77;3.47;;;18.90;94.00;;;;;;5019398;28;20443;-74
2023/08/31 10:25:50;;;;;;;6.20;3.60;;;18.90;93.90;;;;;;5006118;28;20952;-74
2023/08/31 10:28:20;;;;;;;3.93;3.07;;;18.90;93.80;;;;;;4973101;28;20428;-74
2023/08/31 10:31:06;;;;;;;4.07;3.03;;;18.90;93.80;;;;;;5033616;28;20481;-74
2023/08/31 10:33:32;;;;;;;3.17;2.87;;;19.00;93.90;;;;;;5015029;28;20879;-74
2023/08/31 10:35:59;;;;;;;5.50;3.57;;;19.00;93.80;;;;;;5023871;28;20537;-75
2023/08/31 10:38:30;;;;;;;2.87;2.67;;;19.00;93.80;;;;;;5006111;28;20791;-75
2023/08/31 10:41:07;;;;;;;4.40;3.10;;;19.00;93.90;;;;;;4990400;28;20440;-74
2023/08/31 10:43:50;;;;;;;3.10;2.90;;;19.00;93.90;;;;;;5007448;28;20433;-74
2023/08/31 10:46:37;;;;;;;4.10;3.47;;;19.10;93.90;;;;;;5009052;28;20454;-75
2023/08/31 10:49:09;;;;;;;3.73;3.07;;;19.10;93.80;;;;;;5008430;28;21042;-75
2023/08/31 10:51:42;;;;;;;3.37;3.07;;;19.10;93.70;;;;;;5020991;28;20448;-74
2023/08/31 10:54:15;;;;;;;3.40;3.10;;;19.10;93.70;;;;;;5025233;28;20574;-77
2023/08/31 10:57:08;;;;;;;3.53;3.23;;;19.20;93.70;;;;;;5020145;28;20670;-79
2023/08/31 10:59:45;;;;;;;3.10;2.90;;;19.20;93.70;;;;;;5025022;28;20428;-78
2023/08/31 11:02:41;;;;;;;3.93;3.10;;;19.20;93.60;;;;;;5011391;28;20517;-78
2023/08/31 11:05:10;;;;;;;4.57;4.17;;;19.20;93.60;;;;;;5009017;28;21084;-77
2023/08/31 11:07:41;;;;;;;4.17;3.53;;;19.30;93.70;;;;;;5025504;28;20485;-76
2023/08/31 11:10:23;;;;;;;4.30;3.43;;;19.30;93.70;;;;;;5025354;28;20411;-76
2023/08/31 11:12:53;;;;;;;4.00;3.60;;;19.30;93.70;;;;;;5043142;28;20477;-76
2023/08/31 11:15:26;;;;;;;4.40;3.40;;;19.40;93.70;;;;;;5025513;28;20543;-75
2023/08/31 11:17:59;;;;;;;4.67;3.23;;;19.40;93.70;;;;;;5007219;28;20423;-76
2023/08/31 11:20:31;;;;;;;4.57;3.70;;;19.40;93.60;;;;;;5005306;28;20511;-76
2023/08/31 11:22:57;;;;;;;3.27;3.07;;;19.40;93.60;;;;;;4988995;28;20461;-76
2023/08/31 11:25:26;;;;;;;4.20;3.57;;;19.40;93.50;;;;;;5004715;28;20469;-76
2023/08/31 11:27:59;;;;;;;3.50;3.20;;;19.40;93.50;;;;;;5037362;28;20421;-76
2023/08/31 11:30:27;;;;;;;4.00;3.70;;;19.50;93.50;;;;;;5014243;28;20517;-77
2023/08/31 11:32:53;;;;;;;3.67;3.00;;;19.50;93.50;;;;;;5013960;28;20446;-75
2023/08/31 11:35:22;;;;;;;3.73;3.30;;;19.50;93.40;;;;;;5036384;28;21020;-75
2023/08/31 11:37:59;;;;;;;3.90;3.50;;;19.60;93.40;;;;;;5008390;28;20449;-75
2023/08/31 11:40:29;;;;;;;5.03;3.37;;;19.60;93.30;;;;;;5011083;28;20439;-75
2023/08/31 11:43:00;;;;;;;3.83;3.53;;;19.60;93.20;;;;;;5023257;28;20444;-73
2023/08/31 11:45:27;;;;;;;7.03;3.40;;;19.70;93.20;;;;;;5023094;28;20457;-76
2023/08/31 11:47:56;;;;;;;3.70;3.40;;;19.60;93.10;;;;;;5040719;28;20923;-75
2023/08/31 11:50:23;;;;;;;2.93;2.70;;;19.70;93.10;;;;;;5016269;28;20949;-76
2023/08/31 11:52:53;;;;;;;4.07;3.47;;;19.70;93.10;;;;;;5022796;28;20913;-74
2023/08/31 11:55:20;;;;;;;4.33;3.83;;;19.70;93.10;;;;;;5023255;28;21222;-73
2023/08/31 11:57:57;;;;;;;5.50;3.50;;;19.70;93.30;;;;;;5004699;28;20432;-73
2023/08/31 12:00:23;;;;;;;4.30;3.60;;;19.80;93.30;;;;;;5007478;28;20540;-74
2023/08/31 12:03:04;;;;;;;4.07;3.77;;;19.70;93.50;;;;;;4986913;28;20432;-74
2023/08/31 12:05:51;;;;;;;3.50;3.30;;;19.80;93.70;;;;;;5016963;28;20474;-76
2023/08/31 12:08:26;;;;;;;3.93;3.47;;;19.80;93.60;;;;;;5035904;28;20472;-76
2023/08/31 12:10:53;;;;;;;3.30;3.03;;;19.80;93.70;;;;;;5039051;28;20436;-76
2023/08/31 12:13:28;;;;;;;3.97;3.67;;;19.80;93.70;;;;;;5007842;28;20463;-76
2023/08/31 12:15:55;;;;;;;4.13;3.10;;;19.80;93.80;;;;;;5023477;28;20449;-76
2023/08/31 12:18:24;;;;;;;3.17;2.97;;;19.80;93.90;;;;;;4986988;28;20448;-75
2023/08/31 12:20:51;;;;;;;3.80;3.47;;;19.90;93.90;;;;;;5013949;28;20419;-74
2023/08/31 12:23:21;;;;;;;3.70;3.50;;;19.90;93.90;;;;;;5022228;28;20426;-75
2023/08/31 12:25:48;;;;;;;3.63;2.97;;;19.90;93.80;;;;;;4992961;28;20448;-75
2023/08/31 12:28:15;;;;;;;3.43;3.13;;;19.90;93.80;;;;;;5009425;28;20520;-75
2023/08/31 12:30:51;;;;;;;4.20;3.80;;;19.90;93.80;;;;;;5003743;28;20542;-75
2023/08/31 12:33:20;;;;;;;3.50;3.20;;;19.90;93.90;;;;;;5003004;28;20858;-75
2023/08/31 12:35:47;;;;;;;3.10;2.80;;;19.90;94.00;;;;;;5010945;28;20957;-75
2023/08/31 12:38:16;;;;;;;3.50;3.20;;;19.90;93.90;;;;;;5002678;28;21066;-75
2023/08/31 12:40:42;;;;;;;5.93;3.50;;;20.00;94.00;;;;;;5003918;28;20502;-75
2023/08/31 12:43:12;;;;;;;3.70;3.40;;;20.00;93.90;;;;;;4986870;28;20508;-75
2023/08/31 12:45:38;;;;;;;3.20;3.00;;;20.00;93.90;;;;;;4990822;28;20480;-75
2023/08/31 12:48:05;;;;;;;3.23;3.03;;;20.00;93.90;;;;;;4985964;28;20440;-75
2023/08/31 12:50:31;;;;;;;3.43;2.97;;;20.00;94.00;;;;;;5033993;28;20472;-75
2023/08/31 12:52:58;;;;;;;4.17;3.83;;;20.00;93.90;;;;;;5006398;28;20429;-75
2023/08/31 12:55:27;;;;;;;3.73;3.43;;;20.10;94.30;;;;;;5004437;28;20494;-75
2023/08/31 12:57:53;;;;;;;4.13;3.60;;;20.10;94.00;;;;;;4986679;28;20429;-75